sensor_id;sensor_type;location;lat;lon;timestamp;temperature;humidity
75130;HTU21D;63703;44.716;37.846;2023-02-12T00:00:33;0.09;56.45
75130;HTU21D;63703;44.716;37.846;2023-02-12T00:02:59;0.06;56.16
75130;HTU21D;63703;44.716;37.846;2023-02-12T00:05:25;0.03;56.21
75130;HTU21D;63703;44.716;37.846;2023-02-12T00:07:52;0.03;56.27
75130;HTU21D;63703;44.716;37.846;2023-02-12T00:10:18;0.05;56.58
75130;HTU21D;63703;44.716;37.846;2023-02-12T00:12:44;0.08;56.57
75130;HTU21D;63703;44.716;37.846;2023-02-12T00:15:10;0.19;57.93
75130;HTU21D;63703;44.716;37.846;2023-02-12T00:17:36;0.20;57.75
75130;HTU21D;63703;44.716;37.846;2023-02-12T00:20:03;0.16;57.71
75130;HTU21D;63703;44.716;37.846;2023-02-12T00:22:29;0.13;57.74
75130;HTU21D;63703;44.716;37.846;2023-02-12T00:24:55;0.10;58.15
75130;HTU21D;63703;44.716;37.846;2023-02-12T00:27:22;0.13;58.01
75130;HTU21D;63703;44.716;37.846;2023-02-12T00:29:48;0.17;57.96
75130;HTU21D;63703;44.716;37.846;2023-02-12T00:32:14;0.24;58.03
75130;HTU21D;63703;44.716;37.846;2023-02-12T00:34:48;0.35;58.29
75130;HTU21D;63703;44.716;37.846;2023-02-12T00:37:14;0.44;58.13
75130;HTU21D;63703;44.716;37.846;2023-02-12T00:39:41;0.50;58.20
75130;HTU21D;63703;44.716;37.846;2023-02-12T00:42:06;0.57;58.32
75130;HTU21D;63703;44.716;37.846;2023-02-12T00:44:33;0.62;58.41
75130;HTU21D;63703;44.716;37.846;2023-02-12T00:47:02;0.68;58.54
75130;HTU21D;63703;44.716;37.846;2023-02-12T00:49:29;0.74;58.70
75130;HTU21D;63703;44.716;37.846;2023-02-12T00:52:02;0.77;59.09
75130;HTU21D;63703;44.716;37.846;2023-02-12T00:54:29;0.75;59.38
75130;HTU21D;63703;44.716;37.846;2023-02-12T00:56:56;0.71;59.45
75130;HTU21D;63703;44.716;37.846;2023-02-12T00:59:23;0.71;59.54
75130;HTU21D;63703;44.716;37.846;2023-02-12T01:01:50;0.72;59.67
75130;HTU21D;63703;44.716;37.846;2023-02-12T01:04:17;0.74;59.96
75130;HTU21D;63703;44.716;37.846;2023-02-12T01:06:43;0.76;60.02
75130;HTU21D;63703;44.716;37.846;2023-02-12T01:09:09;0.78;60.38
75130;HTU21D;63703;44.716;37.846;2023-02-12T01:11:35;0.79;60.59
75130;HTU21D;63703;44.716;37.846;2023-02-12T01:14:02;0.82;60.81
75130;HTU21D;63703;44.716;37.846;2023-02-12T01:16:28;0.88;60.83
75130;HTU21D;63703;44.716;37.846;2023-02-12T01:18:56;0.93;61.20
75130;HTU21D;63703;44.716;37.846;2023-02-12T01:21:25;0.95;61.38
75130;HTU21D;63703;44.716;37.846;2023-02-12T01:23:52;0.96;61.50
75130;HTU21D;63703;44.716;37.846;2023-02-12T01:26:19;1.01;61.70
75130;HTU21D;63703;44.716;37.846;2023-02-12T01:28:49;1.04;62.08
75130;HTU21D;63703;44.716;37.846;2023-02-12T01:31:19;1.06;62.05
75130;HTU21D;63703;44.716;37.846;2023-02-12T01:33:49;1.09;62.37
75130;HTU21D;63703;44.716;37.846;2023-02-12T01:36:16;1.11;62.12
75130;HTU21D;63703;44.716;37.846;2023-02-12T01:38:42;1.16;62.25
75130;HTU21D;63703;44.716;37.846;2023-02-12T01:41:11;1.19;62.44
75130;HTU21D;63703;44.716;37.846;2023-02-12T01:43:38;1.22;62.44
75130;HTU21D;63703;44.716;37.846;2023-02-12T01:46:05;1.23;62.57
75130;HTU21D;63703;44.716;37.846;2023-02-12T01:48:36;1.24;62.76
75130;HTU21D;63703;44.716;37.846;2023-02-12T01:51:03;1.28;63.50
75130;HTU21D;63703;44.716;37.846;2023-02-12T01:53:39;1.25;64.37
75130;HTU21D;63703;44.716;37.846;2023-02-12T01:56:07;1.16;63.83
75130;HTU21D;63703;44.716;37.846;2023-02-12T01:58:38;1.07;64.01
75130;HTU21D;63703;44.716;37.846;2023-02-12T02:01:17;0.99;63.89
75130;HTU21D;63703;44.716;37.846;2023-02-12T02:03:46;0.96;63.85
75130;HTU21D;63703;44.716;37.846;2023-02-12T02:06:16;0.94;63.91
75130;HTU21D;63703;44.716;37.846;2023-02-12T02:08:44;0.93;64.35
75130;HTU21D;63703;44.716;37.846;2023-02-12T02:11:11;0.90;65.36
75130;HTU21D;63703;44.716;37.846;2023-02-12T02:13:58;0.82;65.24
75130;HTU21D;63703;44.716;37.846;2023-02-12T02:16:50;0.77;65.07
75130;HTU21D;63703;44.716;37.846;2023-02-12T02:25:14;0.79;65.22
75130;HTU21D;63703;44.716;37.846;2023-02-12T02:30:59;0.83;64.69
75130;HTU21D;63703;44.716;37.846;2023-02-12T02:38:38;0.88;65.04
75130;HTU21D;63703;44.716;37.846;2023-02-12T02:41:26;0.91;65.49
75130;HTU21D;63703;44.716;37.846;2023-02-12T02:43:55;0.94;65.18
75130;HTU21D;63703;44.716;37.846;2023-02-12T02:46:51;0.97;65.81
75130;HTU21D;63703;44.716;37.846;2023-02-12T02:49:22;0.99;65.35
75130;HTU21D;63703;44.716;37.846;2023-02-12T02:51:55;1.01;65.47
75130;HTU21D;63703;44.716;37.846;2023-02-12T02:54:33;1.05;66.38
75130;HTU21D;63703;44.716;37.846;2023-02-12T02:57:25;1.07;66.78
75130;HTU21D;63703;44.716;37.846;2023-02-12T03:00:18;1.08;65.79
75130;HTU21D;63703;44.716;37.846;2023-02-12T03:02:52;1.08;66.01
75130;HTU21D;63703;44.716;37.846;2023-02-12T03:05:25;1.10;65.81
75130;HTU21D;63703;44.716;37.846;2023-02-12T03:07:53;1.13;66.17
75130;HTU21D;63703;44.716;37.846;2023-02-12T03:10:27;1.14;65.78
75130;HTU21D;63703;44.716;37.846;2023-02-12T03:13:06;1.16;65.69
75130;HTU21D;63703;44.716;37.846;2023-02-12T03:15:41;1.18;65.99
75130;HTU21D;63703;44.716;37.846;2023-02-12T03:18:15;1.19;65.90
75130;HTU21D;63703;44.716;37.846;2023-02-12T03:20:49;1.20;65.91
75130;HTU21D;63703;44.716;37.846;2023-02-12T03:23:31;1.20;66.49
75130;HTU21D;63703;44.716;37.846;2023-02-12T03:26:23;1.19;66.71
75130;HTU21D;63703;44.716;37.846;2023-02-12T03:28:51;1.19;65.93
75130;HTU21D;63703;44.716;37.846;2023-02-12T03:36:52;1.20;66.20
75130;HTU21D;63703;44.716;37.846;2023-02-12T03:42:12;1.19;66.33
75130;HTU21D;63703;44.716;37.846;2023-02-12T03:44:53;1.20;66.90
75130;HTU21D;63703;44.716;37.846;2023-02-12T03:50:05;1.27;66.49
75130;HTU21D;63703;44.716;37.846;2023-02-12T03:52:33;1.41;66.98
75130;HTU21D;63703;44.716;37.846;2023-02-12T03:54:59;1.57;66.59
75130;HTU21D;63703;44.716;37.846;2023-02-12T03:57:29;1.65;66.41
75130;HTU21D;63703;44.716;37.846;2023-02-12T04:00:04;1.72;66.26
75130;HTU21D;63703;44.716;37.846;2023-02-12T04:02:41;1.81;66.11
75130;HTU21D;63703;44.716;37.846;2023-02-12T04:05:14;1.84;66.07
75130;HTU21D;63703;44.716;37.846;2023-02-12T04:07:41;1.87;66.02
75130;HTU21D;63703;44.716;37.846;2023-02-12T04:10:07;1.95;66.03
75130;HTU21D;63703;44.716;37.846;2023-02-12T04:12:41;2.02;66.26
75130;HTU21D;63703;44.716;37.846;2023-02-12T04:17:58;2.13;66.15
75130;HTU21D;63703;44.716;37.846;2023-02-12T04:26:31;2.35;66.39
75130;HTU21D;63703;44.716;37.846;2023-02-12T04:34:12;2.67;66.79
75130;HTU21D;63703;44.716;37.846;2023-02-12T04:37:14;2.81;66.78
75130;HTU21D;63703;44.716;37.846;2023-02-12T04:39:42;2.99;66.39
75130;HTU21D;63703;44.716;37.846;2023-02-12T04:42:09;3.21;65.81
75130;HTU21D;63703;44.716;37.846;2023-02-12T04:44:39;3.41;65.49
75130;HTU21D;63703;44.716;37.846;2023-02-12T04:47:05;3.47;65.40
75130;HTU21D;63703;44.716;37.846;2023-02-12T04:49:31;3.49;65.24
75130;HTU21D;63703;44.716;37.846;2023-02-12T04:51:57;3.49;65.09
75130;HTU21D;63703;44.716;37.846;2023-02-12T04:54:23;3.47;64.96
75130;HTU21D;63703;44.716;37.846;2023-02-12T04:56:50;3.53;64.61
75130;HTU21D;63703;44.716;37.846;2023-02-12T04:59:16;3.56;64.47
75130;HTU21D;63703;44.716;37.846;2023-02-12T05:01:43;3.59;64.24
75130;HTU21D;63703;44.716;37.846;2023-02-12T05:04:12;3.69;64.19
75130;HTU21D;63703;44.716;37.846;2023-02-12T05:06:38;3.88;62.60
75130;HTU21D;63703;44.716;37.846;2023-02-12T05:09:06;3.97;62.91
75130;HTU21D;63703;44.716;37.846;2023-02-12T05:11:33;4.05;62.49
75130;HTU21D;63703;44.716;37.846;2023-02-12T05:13:59;4.14;62.34
75130;HTU21D;63703;44.716;37.846;2023-02-12T05:16:25;4.26;62.26
75130;HTU21D;63703;44.716;37.846;2023-02-12T05:18:51;4.34;61.63
75130;HTU21D;63703;44.716;37.846;2023-02-12T05:21:17;4.38;61.50
75130;HTU21D;63703;44.716;37.846;2023-02-12T05:23:43;4.44;61.57
75130;HTU21D;63703;44.716;37.846;2023-02-12T05:26:15;4.47;61.19
75130;HTU21D;63703;44.716;37.846;2023-02-12T05:28:41;4.52;60.98
75130;HTU21D;63703;44.716;37.846;2023-02-12T05:31:12;4.59;59.35
75130;HTU21D;63703;44.716;37.846;2023-02-12T05:33:38;4.59;59.25
75130;HTU21D;63703;44.716;37.846;2023-02-12T05:36:13;4.60;59.53
75130;HTU21D;63703;44.716;37.846;2023-02-12T05:38:39;4.48;59.99
75130;HTU21D;63703;44.716;37.846;2023-02-12T05:41:14;4.50;57.98
75130;HTU21D;63703;44.716;37.846;2023-02-12T05:43:40;4.61;56.89
75130;HTU21D;63703;44.716;37.846;2023-02-12T05:46:07;4.69;57.14
75130;HTU21D;63703;44.716;37.846;2023-02-12T05:48:34;4.79;56.42
75130;HTU21D;63703;44.716;37.846;2023-02-12T05:51:06;4.83;55.86
75130;HTU21D;63703;44.716;37.846;2023-02-12T05:53:32;4.88;55.17
75130;HTU21D;63703;44.716;37.846;2023-02-12T05:56:20;4.93;53.57
75130;HTU21D;63703;44.716;37.846;2023-02-12T05:58:51;4.93;54.62
75130;HTU21D;63703;44.716;37.846;2023-02-12T06:01:22;4.91;53.81
75130;HTU21D;63703;44.716;37.846;2023-02-12T06:03:48;4.84;54.81
75130;HTU21D;63703;44.716;37.846;2023-02-12T06:06:14;4.83;55.43
75130;HTU21D;63703;44.716;37.846;2023-02-12T06:08:40;4.87;54.68
75130;HTU21D;63703;44.716;37.846;2023-02-12T06:11:10;4.93;54.27
75130;HTU21D;63703;44.716;37.846;2023-02-12T06:13:37;4.93;55.75
75130;HTU21D;63703;44.716;37.846;2023-02-12T06:16:03;4.80;57.58
75130;HTU21D;63703;44.716;37.846;2023-02-12T06:18:29;4.74;58.31
75130;HTU21D;63703;44.716;37.846;2023-02-12T06:20:55;4.71;59.05
75130;HTU21D;63703;44.716;37.846;2023-02-12T06:23:23;4.68;58.28
75130;HTU21D;63703;44.716;37.846;2023-02-12T06:25:49;4.62;58.86
75130;HTU21D;63703;44.716;37.846;2023-02-12T06:28:16;4.60;59.09
75130;HTU21D;63703;44.716;37.846;2023-02-12T06:30:42;4.60;59.12
75130;HTU21D;63703;44.716;37.846;2023-02-12T06:33:08;4.63;58.90
75130;HTU21D;63703;44.716;37.846;2023-02-12T06:35:35;4.66;59.05
75130;HTU21D;63703;44.716;37.846;2023-02-12T06:38:01;4.65;58.93
75130;HTU21D;63703;44.716;37.846;2023-02-12T06:40:27;4.62;59.32
75130;HTU21D;63703;44.716;37.846;2023-02-12T06:42:53;4.64;59.85
75130;HTU21D;63703;44.716;37.846;2023-02-12T06:45:19;4.64;59.70
75130;HTU21D;63703;44.716;37.846;2023-02-12T06:47:45;4.64;59.89
75130;HTU21D;63703;44.716;37.846;2023-02-12T06:50:11;4.67;60.11
75130;HTU21D;63703;44.716;37.846;2023-02-12T06:52:37;4.74;59.81
75130;HTU21D;63703;44.716;37.846;2023-02-12T06:55:03;4.76;60.04
75130;HTU21D;63703;44.716;37.846;2023-02-12T06:57:29;4.82;60.15
75130;HTU21D;63703;44.716;37.846;2023-02-12T06:59:55;4.87;59.83
75130;HTU21D;63703;44.716;37.846;2023-02-12T07:02:22;4.95;58.65
75130;HTU21D;63703;44.716;37.846;2023-02-12T07:04:47;5.05;57.77
75130;HTU21D;63703;44.716;37.846;2023-02-12T07:07:13;5.13;55.90
75130;HTU21D;63703;44.716;37.846;2023-02-12T07:09:39;5.23;55.11
75130;HTU21D;63703;44.716;37.846;2023-02-12T07:12:06;5.27;55.46
75130;HTU21D;63703;44.716;37.846;2023-02-12T07:14:32;5.37;55.04
75130;HTU21D;63703;44.716;37.846;2023-02-12T07:16:57;5.43;54.00
75130;HTU21D;63703;44.716;37.846;2023-02-12T07:19:24;5.48;53.22
75130;HTU21D;63703;44.716;37.846;2023-02-12T07:21:49;5.51;53.48
75130;HTU21D;63703;44.716;37.846;2023-02-12T07:24:15;5.55;53.56
75130;HTU21D;63703;44.716;37.846;2023-02-12T07:26:42;5.57;53.43
75130;HTU21D;63703;44.716;37.846;2023-02-12T07:29:09;5.56;53.71
75130;HTU21D;63703;44.716;37.846;2023-02-12T07:31:35;5.59;53.52
75130;HTU21D;63703;44.716;37.846;2023-02-12T07:34:01;5.61;52.71
75130;HTU21D;63703;44.716;37.846;2023-02-12T07:36:29;5.60;52.39
75130;HTU21D;63703;44.716;37.846;2023-02-12T07:38:55;5.59;53.01
75130;HTU21D;63703;44.716;37.846;2023-02-12T07:41:23;5.59;54.01
75130;HTU21D;63703;44.716;37.846;2023-02-12T07:43:54;5.52;56.23
75130;HTU21D;63703;44.716;37.846;2023-02-12T07:46:25;5.42;58.33
75130;HTU21D;63703;44.716;37.846;2023-02-12T07:48:55;5.28;59.25
75130;HTU21D;63703;44.716;37.846;2023-02-12T07:51:22;5.20;61.19
75130;HTU21D;63703;44.716;37.846;2023-02-12T07:53:49;5.10;62.56
75130;HTU21D;63703;44.716;37.846;2023-02-12T07:56:21;5.03;62.73
75130;HTU21D;63703;44.716;37.846;2023-02-12T07:58:49;4.93;63.19
75130;HTU21D;63703;44.716;37.846;2023-02-12T08:03:42;4.75;63.72
75130;HTU21D;63703;44.716;37.846;2023-02-12T08:06:31;4.76;64.33
75130;HTU21D;63703;44.716;37.846;2023-02-12T08:08:58;4.79;64.85
75130;HTU21D;63703;44.716;37.846;2023-02-12T08:11:25;4.74;64.72
75130;HTU21D;63703;44.716;37.846;2023-02-12T08:13:52;4.75;64.55
75130;HTU21D;63703;44.716;37.846;2023-02-12T08:16:20;4.77;64.53
75130;HTU21D;63703;44.716;37.846;2023-02-12T08:18:46;4.80;64.64
75130;HTU21D;63703;44.716;37.846;2023-02-12T08:21:16;4.84;64.59
75130;HTU21D;63703;44.716;37.846;2023-02-12T08:23:43;4.93;64.76
75130;HTU21D;63703;44.716;37.846;2023-02-12T08:26:13;5.03;64.48
75130;HTU21D;63703;44.716;37.846;2023-02-12T08:28:42;5.16;64.13
75130;HTU21D;63703;44.716;37.846;2023-02-12T08:31:20;5.24;63.47
75130;HTU21D;63703;44.716;37.846;2023-02-12T08:33:48;5.39;61.75
75130;HTU21D;63703;44.716;37.846;2023-02-12T08:36:16;5.56;60.35
75130;HTU21D;63703;44.716;37.846;2023-02-12T08:38:43;5.78;59.12
75130;HTU21D;63703;44.716;37.846;2023-02-12T08:41:21;5.97;56.98
75130;HTU21D;63703;44.716;37.846;2023-02-12T08:43:48;6.14;54.91
75130;HTU21D;63703;44.716;37.846;2023-02-12T08:46:16;6.27;55.03
75130;HTU21D;63703;44.716;37.846;2023-02-12T08:48:43;6.53;54.87
75130;HTU21D;63703;44.716;37.846;2023-02-12T08:51:11;6.58;53.02
75130;HTU21D;63703;44.716;37.846;2023-02-12T08:53:39;6.57;52.61
75130;HTU21D;63703;44.716;37.846;2023-02-12T08:56:06;6.65;52.45
75130;HTU21D;63703;44.716;37.846;2023-02-12T08:58:33;6.59;51.27
75130;HTU21D;63703;44.716;37.846;2023-02-12T09:01:00;6.50;50.95
75130;HTU21D;63703;44.716;37.846;2023-02-12T09:03:26;6.42;51.33
75130;HTU21D;63703;44.716;37.846;2023-02-12T09:05:52;6.33;51.62
75130;HTU21D;63703;44.716;37.846;2023-02-12T09:08:18;6.27;51.64
75130;HTU21D;63703;44.716;37.846;2023-02-12T09:10:44;6.23;51.50
75130;HTU21D;63703;44.716;37.846;2023-02-12T09:13:12;6.14;51.57
75130;HTU21D;63703;44.716;37.846;2023-02-12T09:15:40;6.02;52.27
75130;HTU21D;63703;44.716;37.846;2023-02-12T09:18:06;5.98;53.04
75130;HTU21D;63703;44.716;37.846;2023-02-12T09:20:32;5.91;53.75
75130;HTU21D;63703;44.716;37.846;2023-02-12T09:23:01;5.84;54.30
75130;HTU21D;63703;44.716;37.846;2023-02-12T09:25:27;5.80;54.42
75130;HTU21D;63703;44.716;37.846;2023-02-12T09:27:54;5.72;54.81
75130;HTU21D;63703;44.716;37.846;2023-02-12T09:30:21;5.65;55.78
75130;HTU21D;63703;44.716;37.846;2023-02-12T09:32:47;5.59;56.48
75130;HTU21D;63703;44.716;37.846;2023-02-12T09:35:13;5.53;56.83
75130;HTU21D;63703;44.716;37.846;2023-02-12T09:37:39;5.54;57.08
75130;HTU21D;63703;44.716;37.846;2023-02-12T09:40:06;5.54;57.22
75130;HTU21D;63703;44.716;37.846;2023-02-12T09:43:03;5.62;58.07
75130;HTU21D;63703;44.716;37.846;2023-02-12T09:45:56;5.66;56.74
75130;HTU21D;63703;44.716;37.846;2023-02-12T09:51:18;5.71;57.07
75130;HTU21D;63703;44.716;37.846;2023-02-12T09:53:45;5.71;57.44
75130;HTU21D;63703;44.716;37.846;2023-02-12T09:56:16;5.81;57.50
75130;HTU21D;63703;44.716;37.846;2023-02-12T09:59:02;5.91;57.86
75130;HTU21D;63703;44.716;37.846;2023-02-12T10:01:28;5.95;54.76
75130;HTU21D;63703;44.716;37.846;2023-02-12T10:03:56;5.93;56.50
75130;HTU21D;63703;44.716;37.846;2023-02-12T10:06:40;6.05;55.78
75130;HTU21D;63703;44.716;37.846;2023-02-12T10:09:54;6.16;54.58
75130;HTU21D;63703;44.716;37.846;2023-02-12T10:12:38;6.26;54.56
75130;HTU21D;63703;44.716;37.846;2023-02-12T10:21:01;6.60;51.44
75130;HTU21D;63703;44.716;37.846;2023-02-12T10:23:54;6.65;51.57
75130;HTU21D;63703;44.716;37.846;2023-02-12T10:26:29;6.71;52.43
75130;HTU21D;63703;44.716;37.846;2023-02-12T10:29:00;6.69;52.82
75130;HTU21D;63703;44.716;37.846;2023-02-12T10:31:33;6.63;52.66
75130;HTU21D;63703;44.716;37.846;2023-02-12T10:34:21;6.57;53.43
75130;HTU21D;63703;44.716;37.846;2023-02-12T10:36:50;6.57;52.56
75130;HTU21D;63703;44.716;37.846;2023-02-12T10:39:24;6.55;52.15
75130;HTU21D;63703;44.716;37.846;2023-02-12T10:44:20;6.72;52.60
75130;HTU21D;63703;44.716;37.846;2023-02-12T10:46:46;6.83;53.07
75130;HTU21D;63703;44.716;37.846;2023-02-12T10:49:14;6.89;52.46
75130;HTU21D;63703;44.716;37.846;2023-02-12T10:54:44;6.79;51.76
75130;HTU21D;63703;44.716;37.846;2023-02-12T10:57:18;6.71;51.82
75130;HTU21D;63703;44.716;37.846;2023-02-12T10:59:46;6.66;51.95
75130;HTU21D;63703;44.716;37.846;2023-02-12T11:04:48;6.65;52.43
75130;HTU21D;63703;44.716;37.846;2023-02-12T11:07:14;6.66;53.01
75130;HTU21D;63703;44.716;37.846;2023-02-12T11:09:43;6.75;52.65
75130;HTU21D;63703;44.716;37.846;2023-02-12T11:12:27;6.80;52.14
75130;HTU21D;63703;44.716;37.846;2023-02-12T11:14:56;6.85;52.01
75130;HTU21D;63703;44.716;37.846;2023-02-12T11:17:38;6.90;50.78
75130;HTU21D;63703;44.716;37.846;2023-02-12T11:20:40;6.94;51.17
75130;HTU21D;63703;44.716;37.846;2023-02-12T11:26:03;6.86;50.99
75130;HTU21D;63703;44.716;37.846;2023-02-12T11:28:30;6.86;51.17
75130;HTU21D;63703;44.716;37.846;2023-02-12T11:31:21;6.94;50.14
75130;HTU21D;63703;44.716;37.846;2023-02-12T11:36:56;7.02;50.42
75130;HTU21D;63703;44.716;37.846;2023-02-12T11:39:27;6.97;51.02
75130;HTU21D;63703;44.716;37.846;2023-02-12T11:44:30;6.83;50.67
75130;HTU21D;63703;44.716;37.846;2023-02-12T11:47:00;6.75;50.78
75130;HTU21D;63703;44.716;37.846;2023-02-12T11:49:37;6.65;50.97
75130;HTU21D;63703;44.716;37.846;2023-02-12T11:52:04;6.57;50.92
75130;HTU21D;63703;44.716;37.846;2023-02-12T11:54:39;6.53;51.14
75130;HTU21D;63703;44.716;37.846;2023-02-12T11:57:05;6.44;51.23
75130;HTU21D;63703;44.716;37.846;2023-02-12T11:59:41;6.43;51.02
75130;HTU21D;63703;44.716;37.846;2023-02-12T12:02:33;6.40;51.40
75130;HTU21D;63703;44.716;37.846;2023-02-12T12:05:24;6.35;52.22
75130;HTU21D;63703;44.716;37.846;2023-02-12T12:08:01;6.26;52.30
75130;HTU21D;63703;44.716;37.846;2023-02-12T12:10:35;6.25;52.01
75130;HTU21D;63703;44.716;37.846;2023-02-12T12:13:24;6.21;55.71
75130;HTU21D;63703;44.716;37.846;2023-02-12T12:16:26;6.15;55.88
75130;HTU21D;63703;44.716;37.846;2023-02-12T12:19:23;6.09;55.72
75130;HTU21D;63703;44.716;37.846;2023-02-12T12:25:33;6.02;54.75
75130;HTU21D;63703;44.716;37.846;2023-02-12T12:31:07;5.94;55.94
75130;HTU21D;63703;44.716;37.846;2023-02-12T12:41:26;5.90;56.89
75130;HTU21D;63703;44.716;37.846;2023-02-12T12:49:53;5.85;57.45
75130;HTU21D;63703;44.716;37.846;2023-02-12T13:00:52;5.76;57.50
75130;HTU21D;63703;44.716;37.846;2023-02-12T13:09:07;5.78;60.00
75130;HTU21D;63703;44.716;37.846;2023-02-12T13:16:57;5.81;58.70
75130;HTU21D;63703;44.716;37.846;2023-02-12T13:22:35;5.79;59.39
75130;HTU21D;63703;44.716;37.846;2023-02-12T13:28:36;5.82;59.22
75130;HTU21D;63703;44.716;37.846;2023-02-12T13:31:07;5.77;59.29
75130;HTU21D;63703;44.716;37.846;2023-02-12T13:33:50;5.72;59.96
75130;HTU21D;63703;44.716;37.846;2023-02-12T13:36:18;5.75;59.86
75130;HTU21D;63703;44.716;37.846;2023-02-12T13:41:19;5.62;61.50
75130;HTU21D;63703;44.716;37.846;2023-02-12T13:49:59;5.46;63.67
75130;HTU21D;63703;44.716;37.846;2023-02-12T13:52:28;5.41;63.77
75130;HTU21D;63703;44.716;37.846;2023-02-12T13:57:32;5.26;64.28
75130;HTU21D;63703;44.716;37.846;2023-02-12T13:59:58;5.09;64.85
75130;HTU21D;63703;44.716;37.846;2023-02-12T14:07:19;4.76;67.88
75130;HTU21D;63703;44.716;37.846;2023-02-12T14:15:40;4.51;67.82
75130;HTU21D;63703;44.716;37.846;2023-02-12T14:17:52;4.47;68.65
75130;HTU21D;63703;44.716;37.846;2023-02-12T14:20:26;4.43;69.74
75130;HTU21D;63703;44.716;37.846;2023-02-12T14:33:50;4.24;71.75
75130;HTU21D;63703;44.716;37.846;2023-02-12T14:41:27;3.92;73.62
75130;HTU21D;63703;44.716;37.846;2023-02-12T14:46:46;3.74;75.94
75130;HTU21D;63703;44.716;37.846;2023-02-12T14:49:19;3.76;77.44
75130;HTU21D;63703;44.716;37.846;2023-02-12T14:51:55;3.65;76.54
75130;HTU21D;63703;44.716;37.846;2023-02-12T14:54:34;3.55;77.56
75130;HTU21D;63703;44.716;37.846;2023-02-12T14:57:24;3.52;78.71
75130;HTU21D;63703;44.716;37.846;2023-02-12T15:00:00;3.39;77.55
75130;HTU21D;63703;44.716;37.846;2023-02-12T15:02:32;3.28;77.76
75130;HTU21D;63703;44.716;37.846;2023-02-12T15:05:03;3.14;77.76
75130;HTU21D;63703;44.716;37.846;2023-02-12T15:10:45;2.94;79.22
75130;HTU21D;63703;44.716;37.846;2023-02-12T15:13:30;2.82;78.45
75130;HTU21D;63703;44.716;37.846;2023-02-12T15:16:07;2.73;78.47
75130;HTU21D;63703;44.716;37.846;2023-02-12T15:18:59;2.66;78.68
75130;HTU21D;63703;44.716;37.846;2023-02-12T15:21:31;2.60;78.08
75130;HTU21D;63703;44.716;37.846;2023-02-12T15:24:06;2.52;77.82
75130;HTU21D;63703;44.716;37.846;2023-02-12T15:26:44;2.49;77.20
75130;HTU21D;63703;44.716;37.846;2023-02-12T15:32:06;2.51;76.43
75130;HTU21D;63703;44.716;37.846;2023-02-12T15:34:36;2.50;76.26
75130;HTU21D;63703;44.716;37.846;2023-02-12T15:37:08;2.46;76.08
75130;HTU21D;63703;44.716;37.846;2023-02-12T15:39:42;2.45;76.12
75130;HTU21D;63703;44.716;37.846;2023-02-12T15:47:35;2.34;75.71
75130;HTU21D;63703;44.716;37.846;2023-02-12T15:50:01;2.34;75.73
75130;HTU21D;63703;44.716;37.846;2023-02-12T15:52:34;2.30;75.88
75130;HTU21D;63703;44.716;37.846;2023-02-12T15:55:03;2.25;75.71
75130;HTU21D;63703;44.716;37.846;2023-02-12T15:57:30;2.20;75.73
75130;HTU21D;63703;44.716;37.846;2023-02-12T16:00:06;2.14;75.91
75130;HTU21D;63703;44.716;37.846;2023-02-12T16:02:38;2.10;75.66
75130;HTU21D;63703;44.716;37.846;2023-02-12T16:05:05;2.05;75.64
75130;HTU21D;63703;44.716;37.846;2023-02-12T16:07:35;2.03;75.75
75130;HTU21D;63703;44.716;37.846;2023-02-12T16:10:02;1.98;75.91
75130;HTU21D;63703;44.716;37.846;2023-02-12T16:12:30;1.94;75.46
75130;HTU21D;63703;44.716;37.846;2023-02-12T16:14:58;1.90;75.53
75130;HTU21D;63703;44.716;37.846;2023-02-12T16:22:58;1.94;75.50
75130;HTU21D;63703;44.716;37.846;2023-02-12T16:25:31;1.97;75.47
75130;HTU21D;63703;44.716;37.846;2023-02-12T16:28:13;1.97;75.47
75130;HTU21D;63703;44.716;37.846;2023-02-12T16:30:41;1.96;75.77
75130;HTU21D;63703;44.716;37.846;2023-02-12T16:33:45;1.94;76.27
75130;HTU21D;63703;44.716;37.846;2023-02-12T16:36:26;1.92;76.36
75130;HTU21D;63703;44.716;37.846;2023-02-12T16:39:02;1.86;75.78
75130;HTU21D;63703;44.716;37.846;2023-02-12T16:41:33;1.85;75.83
75130;HTU21D;63703;44.716;37.846;2023-02-12T16:46:33;1.84;75.99
75130;HTU21D;63703;44.716;37.846;2023-02-12T16:49:17;1.82;75.91
75130;HTU21D;63703;44.716;37.846;2023-02-12T16:51:44;1.81;75.88
75130;HTU21D;63703;44.716;37.846;2023-02-12T16:54:28;1.81;76.57
75130;HTU21D;63703;44.716;37.846;2023-02-12T16:56:55;1.77;76.05
75130;HTU21D;63703;44.716;37.846;2023-02-12T16:59:22;1.77;76.11
75130;HTU21D;63703;44.716;37.846;2023-02-12T17:02:03;1.79;76.50
75130;HTU21D;63703;44.716;37.846;2023-02-12T17:04:29;1.73;76.14
75130;HTU21D;63703;44.716;37.846;2023-02-12T17:06:56;1.72;76.18
75130;HTU21D;63703;44.716;37.846;2023-02-12T17:09:23;1.69;76.18
75130;HTU21D;63703;44.716;37.846;2023-02-12T17:11:49;1.67;76.49
75130;HTU21D;63703;44.716;37.846;2023-02-12T17:14:19;1.65;76.65
75130;HTU21D;63703;44.716;37.846;2023-02-12T17:16:46;1.58;76.66
75130;HTU21D;63703;44.716;37.846;2023-02-12T17:19:12;1.53;76.86
75130;HTU21D;63703;44.716;37.846;2023-02-12T17:21:43;1.51;76.82
75130;HTU21D;63703;44.716;37.846;2023-02-12T17:26:43;1.46;76.63
75130;HTU21D;63703;44.716;37.846;2023-02-12T17:29:08;1.45;76.64
75130;HTU21D;63703;44.716;37.846;2023-02-12T17:31:35;1.41;76.81
75130;HTU21D;63703;44.716;37.846;2023-02-12T17:34:03;1.37;76.60
75130;HTU21D;63703;44.716;37.846;2023-02-12T17:36:29;1.36;76.57
75130;HTU21D;63703;44.716;37.846;2023-02-12T17:38:55;1.35;76.66
75130;HTU21D;63703;44.716;37.846;2023-02-12T17:41:21;1.35;76.61
75130;HTU21D;63703;44.716;37.846;2023-02-12T17:43:47;1.38;76.67
75130;HTU21D;63703;44.716;37.846;2023-02-12T17:46:17;1.39;76.77
75130;HTU21D;63703;44.716;37.846;2023-02-12T17:48:44;1.37;76.87
75130;HTU21D;63703;44.716;37.846;2023-02-12T17:51:10;1.34;76.92
75130;HTU21D;63703;44.716;37.846;2023-02-12T17:53:37;1.28;77.01
75130;HTU21D;63703;44.716;37.846;2023-02-12T17:56:04;1.26;76.99
75130;HTU21D;63703;44.716;37.846;2023-02-12T17:58:30;1.21;76.98
75130;HTU21D;63703;44.716;37.846;2023-02-12T18:00:56;1.18;77.09
75130;HTU21D;63703;44.716;37.846;2023-02-12T18:03:22;1.14;76.97
75130;HTU21D;63703;44.716;37.846;2023-02-12T18:05:47;1.11;76.94
75130;HTU21D;63703;44.716;37.846;2023-02-12T18:08:13;1.06;76.84
75130;HTU21D;63703;44.716;37.846;2023-02-12T18:10:41;1.02;76.80
75130;HTU21D;63703;44.716;37.846;2023-02-12T18:13:08;0.97;76.71
75130;HTU21D;63703;44.716;37.846;2023-02-12T18:15:35;0.95;76.71
75130;HTU21D;63703;44.716;37.846;2023-02-12T18:18:01;0.93;76.79
75130;HTU21D;63703;44.716;37.846;2023-02-12T18:20:28;0.88;76.73
75130;HTU21D;63703;44.716;37.846;2023-02-12T18:22:53;0.86;76.73
75130;HTU21D;63703;44.716;37.846;2023-02-12T18:25:19;0.83;76.82
75130;HTU21D;63703;44.716;37.846;2023-02-12T18:27:46;0.78;76.70
75130;HTU21D;63703;44.716;37.846;2023-02-12T18:30:12;0.75;76.65
75130;HTU21D;63703;44.716;37.846;2023-02-12T18:32:38;0.67;76.57